sensor_id;sensor_type;location;lat;lon;timestamp;pressure;altitude;pressure_sealevel;temperature;humidity
19023;BME280;35226;48.606;8.858;2023-04-24T00:02:07;95336.06;;;10.15;100.00
19023;BME280;35226;48.606;8.858;2023-04-24T00:04:34;95347.53;;;10.32;100.00
19023;BME280;35226;48.606;8.858;2023-04-24T00:07:00;95344.47;;;10.30;100.00
19023;BME280;35226;48.606;8.858;2023-04-24T00:09:26;95334.53;;;10.23;100.00
19023;BME280;35226;48.606;8.858;2023-04-24T00:11:52;95336.38;;;10.26;100.00
19023;BME280;35226;48.606;8.858;2023-04-24T00:14:18;95333.31;;;10.24;100.00
19023;BME280;35226;48.606;8.858;2023-04-24T00:16:44;95350.34;;;10.05;100.00
19023;BME280;35226;48.606;8.858;2023-04-24T00:19:09;95347.41;;;10.26;100.00
19023;BME280;35226;48.606;8.858;2023-04-24T00:21:36;95351.41;;;10.07;100.00
19023;BME280;35226;48.606;8.858;2023-04-24T00:24:03;95352.63;;;10.06;100.00
19023;BME280;35226;48.606;8.858;2023-04-24T00:26:28;95356.34;;;9.94;100.00
19023;BME280;35226;48.606;8.858;2023-04-24T00:28:54;95350.50;;;9.83;100.00
19023;BME280;35226;48.606;8.858;2023-04-24T00:31:19;95350.69;;;9.88;100.00
19023;BME280;35226;48.606;8.858;2023-04-24T00:33:45;95347.88;;;10.07;100.00
19023;BME280;35226;48.606;8.858;2023-04-24T00:36:11;95340.66;;;10.09;100.00
19023;BME280;35226;48.606;8.858;2023-04-24T00:38:36;95331.75;;;10.14;100.00
19023;BME280;35226;48.606;8.858;2023-04-24T00:41:03;95328.84;;;10.27;100.00
19023;BME280;35226;48.606;8.858;2023-04-24T00:43:28;95332.72;;;9.93;100.00
19023;BME280;35226;48.606;8.858;2023-04-24T00:45:54;95336.41;;;9.90;100.00
19023;BME280;35226;48.606;8.858;2023-04-24T00:48:20;95338.38;;;9.89;100.00
19023;BME280;35226;48.606;8.858;2023-04-24T00:50:46;95335.19;;;9.91;100.00
19023;BME280;35226;48.606;8.858;2023-04-24T00:53:13;95328.13;;;9.90;100.00
19023;BME280;35226;48.606;8.858;2023-04-24T00:55:38;95328.75;;;9.94;100.00
19023;BME280;35226;48.606;8.858;2023-04-24T00:58:04;95316.00;;;10.06;100.00
19023;BME280;35226;48.606;8.858;2023-04-24T01:00:30;95311.22;;;10.15;100.00
19023;BME280;35226;48.606;8.858;2023-04-24T01:02:58;95319.69;;;9.93;100.00
19023;BME280;35226;48.606;8.858;2023-04-24T01:05:25;95311.56;;;10.08;100.00
19023;BME280;35226;48.606;8.858;2023-04-24T01:07:51;95308.78;;;10.08;100.00
19023;BME280;35226;48.606;8.858;2023-04-24T01:10:17;95308.19;;;10.04;100.00
19023;BME280;35226;48.606;8.858;2023-04-24T01:12:44;95319.22;;;10.04;100.00
19023;BME280;35226;48.606;8.858;2023-04-24T01:15:11;95309.25;;;10.07;100.00
19023;BME280;35226;48.606;8.858;2023-04-24T01:17:37;95315.53;;;10.07;100.00
19023;BME280;35226;48.606;8.858;2023-04-24T01:20:04;95307.06;;;10.20;100.00
19023;BME280;35226;48.606;8.858;2023-04-24T01:22:31;95303.09;;;10.12;100.00
19023;BME280;35226;48.606;8.858;2023-04-24T01:24:57;95309.06;;;10.10;100.00
19023;BME280;35226;48.606;8.858;2023-04-24T01:27:22;95301.00;;;10.49;100.00
19023;BME280;35226;48.606;8.858;2023-04-24T01:29:48;95301.06;;;10.30;100.00
19023;BME280;35226;48.606;8.858;2023-04-24T01:32:14;95305.25;;;10.26;100.00
19023;BME280;35226;48.606;8.858;2023-04-24T01:34:40;95299.69;;;10.35;100.00
19023;BME280;35226;48.606;8.858;2023-04-24T01:37:06;95306.78;;;10.27;100.00
19023;BME280;35226;48.606;8.858;2023-04-24T01:39:32;95304.16;;;10.23;100.00
19023;BME280;35226;48.606;8.858;2023-04-24T01:41:59;95309.84;;;10.11;100.00
19023;BME280;35226;48.606;8.858;2023-04-24T01:44:26;95307.84;;;10.11;100.00
19023;BME280;35226;48.606;8.858;2023-04-24T01:46:52;95307.63;;;10.42;100.00
19023;BME280;35226;48.606;8.858;2023-04-24T01:49:19;95294.66;;;10.15;100.00
19023;BME280;35226;48.606;8.858;2023-04-24T01:51:45;95291.19;;;9.96;100.00
19023;BME280;35226;48.606;8.858;2023-04-24T01:54:10;95289.97;;;10.39;100.00
19023;BME280;35226;48.606;8.858;2023-04-24T01:56:36;95288.84;;;10.13;100.00
19023;BME280;35226;48.606;8.858;2023-04-24T01:59:06;95290.25;;;9.99;100.00
19023;BME280;35226;48.606;8.858;2023-04-24T02:01:36;95296.22;;;10.07;100.00
19023;BME280;35226;48.606;8.858;2023-04-24T02:04:03;95292.38;;;10.05;100.00
19023;BME280;35226;48.606;8.858;2023-04-24T02:06:29;95302.94;;;10.15;100.00
19023;BME280;35226;48.606;8.858;2023-04-24T02:08:57;95294.66;;;10.15;100.00
19023;BME280;35226;48.606;8.858;2023-04-24T02:11:23;95295.13;;;10.14;100.00
19023;BME280;35226;48.606;8.858;2023-04-24T02:13:50;95296.19;;;10.16;100.00
19023;BME280;35226;48.606;8.858;2023-04-24T02:16:17;95297.88;;;10.14;100.00
19023;BME280;35226;48.606;8.858;2023-04-24T02:18:42;95289.56;;;10.32;100.00
19023;BME280;35226;48.606;8.858;2023-04-24T02:21:09;95296.06;;;10.01;100.00
19023;BME280;35226;48.606;8.858;2023-04-24T02:23:35;95295.28;;;10.19;100.00
19023;BME280;35226;48.606;8.858;2023-04-24T02:26:00;95297.72;;;10.26;100.00
19023;BME280;35226;48.606;8.858;2023-04-24T02:28:26;95295.34;;;10.43;100.00
19023;BME280;35226;48.606;8.858;2023-04-24T02:30:52;95288.03;;;10.31;100.00
19023;BME280;35226;48.606;8.858;2023-04-24T02:33:20;95300.78;;;10.10;100.00
19023;BME280;35226;48.606;8.858;2023-04-24T02:35:46;95314.50;;;9.86;100.00
19023;BME280;35226;48.606;8.858;2023-04-24T02:38:11;95313.09;;;10.00;100.00
19023;BME280;35226;48.606;8.858;2023-04-24T02:40:37;95312.13;;;10.12;100.00
19023;BME280;35226;48.606;8.858;2023-04-24T02:43:02;95310.31;;;10.00;100.00
19023;BME280;35226;48.606;8.858;2023-04-24T02:45:28;95308.75;;;10.26;100.00
19023;BME280;35226;48.606;8.858;2023-04-24T02:47:54;95310.97;;;9.86;100.00
19023;BME280;35226;48.606;8.858;2023-04-24T02:50:19;95324.75;;;9.95;100.00
19023;BME280;35226;48.606;8.858;2023-04-24T02:52:45;95311.06;;;10.19;100.00
19023;BME280;35226;48.606;8.858;2023-04-24T02:55:10;95302.94;;;10.24;100.00
19023;BME280;35226;48.606;8.858;2023-04-24T02:57:36;95292.81;;;10.21;100.00
19023;BME280;35226;48.606;8.858;2023-04-24T03:00:02;95292.34;;;10.23;100.00
19023;BME280;35226;48.606;8.858;2023-04-24T03:02:28;95288.91;;;9.86;100.00
19023;BME280;35226;48.606;8.858;2023-04-24T03:04:54;95306.06;;;9.90;100.00
19023;BME280;35226;48.606;8.858;2023-04-24T03:07:20;95307.63;;;9.73;100.00
19023;BME280;35226;48.606;8.858;2023-04-24T03:09:46;95307.94;;;9.75;100.00
19023;BME280;35226;48.606;8.858;2023-04-24T03:12:14;95318.97;;;9.75;100.00
19023;BME280;35226;48.606;8.858;2023-04-24T03:14:39;95314.06;;;9.79;100.00
19023;BME280;35226;48.606;8.858;2023-04-24T03:17:05;95307.16;;;9.83;100.00
19023;BME280;35226;48.606;8.858;2023-04-24T03:19:31;95303.94;;;9.85;100.00
19023;BME280;35226;48.606;8.858;2023-04-24T03:22:02;95299.50;;;9.78;100.00
19023;BME280;35226;48.606;8.858;2023-04-24T03:24:29;95293.53;;;9.61;100.00
19023;BME280;35226;48.606;8.858;2023-04-24T03:26:56;95290.75;;;9.71;100.00
19023;BME280;35226;48.606;8.858;2023-04-24T03:29:41;95280.97;;;9.70;100.00
19023;BME280;35226;48.606;8.858;2023-04-24T03:32:06;95282.06;;;9.54;100.00
19023;BME280;35226;48.606;8.858;2023-04-24T03:34:35;95266.25;;;9.73;100.00
19023;BME280;35226;48.606;8.858;2023-04-24T03:37:00;95270.44;;;9.59;100.00
19023;BME280;35226;48.606;8.858;2023-04-24T03:39:27;95264.25;;;9.73;100.00
19023;BME280;35226;48.606;8.858;2023-04-24T03:41:54;95267.59;;;9.86;100.00
19023;BME280;35226;48.606;8.858;2023-04-24T03:44:26;95268.69;;;9.71;100.00
19023;BME280;35226;48.606;8.858;2023-04-24T03:46:52;95263.91;;;9.98;100.00
19023;BME280;35226;48.606;8.858;2023-04-24T03:49:20;95256.78;;;10.16;100.00
19023;BME280;35226;48.606;8.858;2023-04-24T03:51:46;95262.03;;;10.05;100.00
19023;BME280;35226;48.606;8.858;2023-04-24T03:54:24;95277.31;;;9.63;100.00
19023;BME280;35226;48.606;8.858;2023-04-24T03:56:51;95265.63;;;9.87;100.00
19023;BME280;35226;48.606;8.858;2023-04-24T03:59:17;95283.53;;;9.82;100.00
19023;BME280;35226;48.606;8.858;2023-04-24T04:01:47;95282.22;;;9.50;100.00
19023;BME280;35226;48.606;8.858;2023-04-24T04:04:15;95286.47;;;9.60;100.00
19023;BME280;35226;48.606;8.858;2023-04-24T04:06:42;95297.06;;;9.44;100.00
19023;BME280;35226;48.606;8.858;2023-04-24T04:09:09;95302.53;;;9.80;100.00
19023;BME280;35226;48.606;8.858;2023-04-24T04:11:36;95302.44;;;9.56;100.00
19023;BME280;35226;48.606;8.858;2023-04-24T04:14:01;95316.81;;;9.51;100.00
19023;BME280;35226;48.606;8.858;2023-04-24T04:16:27;95320.66;;;9.63;100.00
19023;BME280;35226;48.606;8.858;2023-04-24T04:18:59;95329.69;;;9.54;100.00
19023;BME280;35226;48.606;8.858;2023-04-24T04:21:25;95339.38;;;9.59;100.00
19023;BME280;35226;48.606;8.858;2023-04-24T04:23:56;95338.44;;;9.53;100.00
19023;BME280;35226;48.606;8.858;2023-04-24T04:26:29;95341.63;;;9.60;100.00
19023;BME280;35226;48.606;8.858;2023-04-24T04:29:03;95349.16;;;9.78;100.00
19023;BME280;35226;48.606;8.858;2023-04-24T04:31:30;95342.06;;;9.95;100.00
19023;BME280;35226;48.606;8.858;2023-04-24T04:33:59;95341.91;;;10.08;100.00
19023;BME280;35226;48.606;8.858;2023-04-24T04:36:27;95339.75;;;10.03;100.00
19023;BME280;35226;48.606;8.858;2023-04-24T04:39:00;95349.75;;;9.73;100.00
19023;BME280;35226;48.606;8.858;2023-04-24T04:41:46;95340.28;;;9.65;100.00
19023;BME280;35226;48.606;8.858;2023-04-24T04:44:16;95356.19;;;9.52;100.00
19023;BME280;35226;48.606;8.858;2023-04-24T04:46:42;95349.00;;;9.27;100.00
19023;BME280;35226;48.606;8.858;2023-04-24T04:49:28;95363.25;;;9.35;100.00
19023;BME280;35226;48.606;8.858;2023-04-24T04:51:57;95361.09;;;9.30;100.00
19023;BME280;35226;48.606;8.858;2023-04-24T04:54:25;95362.16;;;9.32;100.00
19023;BME280;35226;48.606;8.858;2023-04-24T04:56:50;95371.34;;;9.29;100.00
19023;BME280;35226;48.606;8.858;2023-04-24T04:59:16;95367.84;;;9.28;100.00
19023;BME280;35226;48.606;8.858;2023-04-24T05:01:42;95371.97;;;9.33;100.00
19023;BME280;35226;48.606;8.858;2023-04-24T05:04:09;95373.94;;;9.33;100.00
19023;BME280;35226;48.606;8.858;2023-04-24T05:06:36;95377.16;;;9.22;100.00
19023;BME280;35226;48.606;8.858;2023-04-24T05:09:04;95385.59;;;9.37;100.00
19023;BME280;35226;48.606;8.858;2023-04-24T05:11:36;95380.34;;;9.11;100.00
19023;BME280;35226;48.606;8.858;2023-04-24T05:14:02;95391.22;;;9.15;100.00
19023;BME280;35226;48.606;8.858;2023-04-24T05:16:36;95396.59;;;9.18;100.00
19023;BME280;35226;48.606;8.858;2023-04-24T05:19:03;95402.25;;;9.24;100.00
19023;BME280;35226;48.606;8.858;2023-04-24T05:21:34;95404.25;;;9.23;100.00
19023;BME280;35226;48.606;8.858;2023-04-24T05:24:00;95404.13;;;9.27;100.00
19023;BME280;35226;48.606;8.858;2023-04-24T05:26:42;95407.34;;;9.35;100.00
19023;BME280;35226;48.606;8.858;2023-04-24T05:29:08;95410.41;;;9.37;100.00
19023;BME280;35226;48.606;8.858;2023-04-24T05:31:34;95412.53;;;9.33;100.00
19023;BME280;35226;48.606;8.858;2023-04-24T05:34:00;95411.63;;;9.36;100.00
19023;BME280;35226;48.606;8.858;2023-04-24T05:36:25;95422.34;;;9.34;100.00
19023;BME280;35226;48.606;8.858;2023-04-24T05:38:52;95410.41;;;9.37;100.00
19023;BME280;35226;48.606;8.858;2023-04-24T05:41:18;95410.88;;;9.35;100.00
19023;BME280;35226;48.606;8.858;2023-04-24T05:43:43;95409.47;;;9.31;100.00
19023;BME280;35226;48.606;8.858;2023-04-24T05:46:09;95426.94;;;9.27;100.00
19023;BME280;35226;48.606;8.858;2023-04-24T05:48:34;95416.22;;;9.30;100.00
19023;BME280;35226;48.606;8.858;2023-04-24T05:51:02;95421.50;;;9.06;100.00
19023;BME280;35226;48.606;8.858;2023-04-24T05:53:28;95427.47;;;9.04;100.00
19023;BME280;35226;48.606;8.858;2023-04-24T05:55:54;95424.97;;;8.88;100.00
19023;BME280;35226;48.606;8.858;2023-04-24T05:58:20;95423.97;;;9.13;100.00
19023;BME280;35226;48.606;8.858;2023-04-24T06:00:46;95429.94;;;9.11;100.00
19023;BME280;35226;48.606;8.858;2023-04-24T06:03:12;95428.38;;;9.01;100.00
19023;BME280;35226;48.606;8.858;2023-04-24T06:05:38;95430.72;;;9.21;100.00
19023;BME280;35226;48.606;8.858;2023-04-24T06:08:04;95439.19;;;9.26;100.00
19023;BME280;35226;48.606;8.858;2023-04-24T06:10:33;95448.88;;;9.49;100.00
19023;BME280;35226;48.606;8.858;2023-04-24T06:12:59;95442.31;;;9.56;100.00
19023;BME280;35226;48.606;8.858;2023-04-24T06:15:28;95443.84;;;9.57;100.00
19023;BME280;35226;48.606;8.858;2023-04-24T06:17:57;95433.28;;;9.83;100.00
19023;BME280;35226;48.606;8.858;2023-04-24T06:20:23;95437.38;;;9.51;100.00
19023;BME280;35226;48.606;8.858;2023-04-24T06:22:48;95442.31;;;9.83;100.00
19023;BME280;35226;48.606;8.858;2023-04-24T06:25:14;95441.09;;;9.75;100.00
19023;BME280;35226;48.606;8.858;2023-04-24T06:27:40;95435.56;;;10.12;100.00
19023;BME280;35226;48.606;8.858;2023-04-24T06:30:07;95434.03;;;10.29;100.00
19023;BME280;35226;48.606;8.858;2023-04-24T06:32:33;95431.13;;;10.32;100.00
19023;BME280;35226;48.606;8.858;2023-04-24T06:34:59;95435.72;;;10.17;100.00
19023;BME280;35226;48.606;8.858;2023-04-24T06:37:24;95439.41;;;10.32;100.00
19023;BME280;35226;48.606;8.858;2023-04-24T06:39:50;95439.09;;;10.39;100.00
19023;BME280;35226;48.606;8.858;2023-04-24T06:42:15;95435.88;;;10.14;100.00
19023;BME280;35226;48.606;8.858;2023-04-24T06:44:43;95435.25;;;10.10;100.00
19023;BME280;35226;48.606;8.858;2023-04-24T06:47:10;95439.88;;;10.22;100.00
19023;BME280;35226;48.606;8.858;2023-04-24T06:49:36;95440.31;;;10.11;100.00
19023;BME280;35226;48.606;8.858;2023-04-24T06:52:02;95438.47;;;9.90;100.00
19023;BME280;35226;48.606;8.858;2023-04-24T06:54:29;95439.72;;;9.89;100.00
19023;BME280;35226;48.606;8.858;2023-04-24T06:56:54;95458.41;;;9.67;100.00
19023;BME280;35226;48.606;8.858;2023-04-24T06:59:20;95473.19;;;9.42;100.00
19023;BME280;35226;48.606;8.858;2023-04-24T07:01:46;95485.94;;;9.48;100.00
19023;BME280;35226;48.606;8.858;2023-04-24T07:04:11;95481.66;;;9.47;100.00
19023;BME280;35226;48.606;8.858;2023-04-24T07:06:38;95477.03;;;9.44;100.00
19023;BME280;35226;48.606;8.858;2023-04-24T07:09:04;95465.38;;;9.40;100.00
19023;BME280;35226;48.606;8.858;2023-04-24T07:11:30;95469.69;;;9.50;100.00
19023;BME280;35226;48.606;8.858;2023-04-24T07:13:55;95464.34;;;9.47;100.00
19023;BME280;35226;48.606;8.858;2023-04-24T07:16:21;95472.50;;;9.59;100.00
19023;BME280;35226;48.606;8.858;2023-04-24T07:18:47;95472.66;;;9.65;100.00
19023;BME280;35226;48.606;8.858;2023-04-24T07:21:12;95480.16;;;9.64;100.00
19023;BME280;35226;48.606;8.858;2023-04-24T07:23:38;95474.34;;;9.81;100.00
19023;BME280;35226;48.606;8.858;2023-04-24T07:26:04;95465.44;;;9.68;100.00
19023;BME280;35226;48.606;8.858;2023-04-24T07:28:30;95483.66;;;9.56;100.00
19023;BME280;35226;48.606;8.858;2023-04-24T07:30:57;95479.38;;;9.64;100.00
19023;BME280;35226;48.606;8.858;2023-04-24T07:33:24;95492.28;;;9.76;100.00
19023;BME280;35226;48.606;8.858;2023-04-24T07:35:49;95487.22;;;9.84;100.00
19023;BME280;35226;48.606;8.858;2023-04-24T07:38:15;95485.09;;;9.88;100.00
19023;BME280;35226;48.606;8.858;2023-04-24T07:40:41;95492.72;;;9.65;100.00
19023;BME280;35226;48.606;8.858;2023-04-24T07:43:06;95491.53;;;9.85;100.00
19023;BME280;35226;48.606;8.858;2023-04-24T07:45:32;95497.03;;;9.85;100.00
19023;BME280;35226;48.606;8.858;2023-04-24T07:48:01;95511.28;;;9.74;100.00
19023;BME280;35226;48.606;8.858;2023-04-24T07:50:26;95500.38;;;9.71;100.00
19023;BME280;35226;48.606;8.858;2023-04-24T07:52:52;95507.00;;;10.00;100.00
19023;BME280;35226;48.606;8.858;2023-04-24T07:55:17;95506.25;;;10.00;100.00
19023;BME280;35226;48.606;8.858;2023-04-24T07:57:43;95510.25;;;10.17;100.00
19023;BME280;35226;48.606;8.858;2023-04-24T08:00:09;95509.16;;;10.15;100.00
19023;BME280;35226;48.606;8.858;2023-04-24T08:02:38;95527.31;;;10.25;100.00
19023;BME280;35226;48.606;8.858;2023-04-24T08:05:03;95514.25;;;10.07;100.00
19023;BME280;35226;48.606;8.858;2023-04-24T08:07:29;95517.78;;;10.17;100.00
19023;BME280;35226;48.606;8.858;2023-04-24T08:09:54;95514.69;;;10.06;100.00
19023;BME280;35226;48.606;8.858;2023-04-24T08:12:20;95523.09;;;9.84;100.00
19023;BME280;35226;48.606;8.858;2023-04-24T08:14:46;95532.28;;;9.99;100.00
19023;BME280;35226;48.606;8.858;2023-04-24T08:17:11;95530.94;;;10.03;100.00
19023;BME280;35226;48.606;8.858;2023-04-24T08:19:37;95530.03;;;10.07;100.00
19023;BME280;35226;48.606;8.858;2023-04-24T08:22:02;95536.59;;;10.00;100.00
19023;BME280;35226;48.606;8.858;2023-04-24T08:24:29;95542.78;;;10.31;100.00
19023;BME280;35226;48.606;8.858;2023-04-24T08:26:55;95542.00;;;10.31;100.00
19023;BME280;35226;48.606;8.858;2023-04-24T08:29:23;95544.31;;;10.42;100.00
19023;BME280;35226;48.606;8.858;2023-04-24T08:31:48;95551.53;;;10.21;100.00
19023;BME280;35226;48.606;8.858;2023-04-24T08:34:14;95561.66;;;10.24;100.00
19023;BME280;35226;48.606;8.858;2023-04-24T08:36:39;95567.56;;;9.95;100.00
19023;BME280;35226;48.606;8.858;2023-04-24T08:39:06;95565.91;;;10.07;100.00
19023;BME280;35226;48.606;8.858;2023-04-24T08:41:34;95563.13;;;9.88;100.00
19023;BME280;35226;48.606;8.858;2023-04-24T08:44:01;95563.41;;;9.90;100.00
19023;BME280;35226;48.606;8.858;2023-04-24T08:46:27;95565.09;;;9.88;100.00
19023;BME280;35226;48.606;8.858;2023-04-24T08:48:55;95575.22;;;10.09;100.00
19023;BME280;35226;48.606;8.858;2023-04-24T08:51:26;95582.47;;;10.16;100.00
19023;BME280;35226;48.606;8.858;2023-04-24T08:53:53;95574.78;;;10.11;100.00
19023;BME280;35226;48.606;8.858;2023-04-24T08:56:19;95576.19;;;10.15;100.00
19023;BME280;35226;48.606;8.858;2023-04-24T08:58:46;95570.56;;;10.28;100.00
19023;BME280;35226;48.606;8.858;2023-04-24T09:01:12;95570.06;;;10.20;100.00
19023;BME280;35226;48.606;8.858;2023-04-24T09:03:38;95575.59;;;10.29;100.00
19023;BME280;35226;48.606;8.858;2023-04-24T09:06:06;95572.25;;;10.25;100.00
19023;BME280;35226;48.606;8.858;2023-04-24T09:08:32;95573.78;;;10.35;100.00
19023;BME280;35226;48.606;8.858;2023-04-24T09:10:58;95583.44;;;10.67;100.00
19023;BME280;35226;48.606;8.858;2023-04-24T09:13:27;95579.44;;;10.59;100.00
19023;BME280;35226;48.606;8.858;2023-04-24T09:15:53;95584.78;;;10.90;100.00
19023;BME280;35226;48.606;8.858;2023-04-24T09:18:19;95584.66;;;10.85;100.00
19023;BME280;35226;48.606;8.858;2023-04-24T09:23:26;95588.25;;;11.27;100.00
19023;BME280;35226;48.606;8.858;2023-04-24T09:25:55;95592.22;;;11.26;100.00
19023;BME280;35226;48.606;8.858;2023-04-24T09:28:46;95585.72;;;11.05;100.00
19023;BME280;35226;48.606;8.858;2023-04-24T09:31:16;95588.47;;;11.05;100.00
19023;BME280;35226;48.606;8.858;2023-04-24T09:34:03;95593.19;;;11.23;100.00
19023;BME280;35226;48.606;8.858;2023-04-24T09:36:36;95595.41;;;11.52;100.00
19023;BME280;35226;48.606;8.858;2023-04-24T09:39:11;95601.47;;;11.74;100.00
19023;BME280;35226;48.606;8.858;2023-04-24T09:41:47;95606.72;;;11.63;89.14
19023;BME280;35226;48.606;8.858;2023-04-24T09:44:14;95604.28;;;11.65;86.72
19023;BME280;35226;48.606;8.858;2023-04-24T09:46:42;95619.28;;;11.82;87.26
19023;BME280;35226;48.606;8.858;2023-04-24T09:49:15;95602.88;;;12.27;86.82
19023;BME280;35226;48.606;8.858;2023-04-24T09:51:42;95620.59;;;11.96;83.37
19023;BME280;35226;48.606;8.858;2023-04-24T09:54:15;95619.50;;;12.03;83.28
19023;BME280;35226;48.606;8.858;2023-04-24T09:56:45;95619.72;;;11.90;83.68
19023;BME280;35226;48.606;8.858;2023-04-24T09:59:16;95619.44;;;11.79;89.04
19023;BME280;35226;48.606;8.858;2023-04-24T10:01:45;95635.59;;;11.71;92.24
19023;BME280;35226;48.606;8.858;2023-04-24T10:04:24;95638.97;;;11.75;93.69
19023;BME280;35226;48.606;8.858;2023-04-24T10:06:51;95634.81;;;11.71;94.30
19023;BME280;35226;48.606;8.858;2023-04-24T10:09:22;95642.38;;;11.70;97.61
19023;BME280;35226;48.606;8.858;2023-04-24T10:11:49;95635.28;;;11.78;97.92
19023;BME280;35226;48.606;8.858;2023-04-24T10:14:17;95645.53;;;11.87;100.00
19023;BME280;35226;48.606;8.858;2023-04-24T10:16:44;95638.59;;;12.24;100.00
19023;BME280;35226;48.606;8.858;2023-04-24T10:19:13;95645.34;;;12.00;100.00
19023;BME280;35226;48.606;8.858;2023-04-24T10:21:41;95653.38;;;11.89;100.00
19023;BME280;35226;48.606;8.858;2023-04-24T10:24:15;95647.47;;;12.05;100.00
19023;BME280;35226;48.606;8.858;2023-04-24T10:26:42;95651.88;;;11.78;100.00
19023;BME280;35226;48.606;8.858;2023-04-24T10:29:08;95652.56;;;11.97;100.00
19023;BME280;35226;48.606;8.858;2023-04-24T10:31:37;95656.63;;;11.87;100.00
19023;BME280;35226;48.606;8.858;2023-04-24T10:34:04;95656.66;;;11.69;100.00
19023;BME280;35226;48.606;8.858;2023-04-24T10:36:32;95679.75;;;11.75;100.00
19023;BME280;35226;48.606;8.858;2023-04-24T10:39:00;95674.34;;;11.80;100.00
19023;BME280;35226;48.606;8.858;2023-04-24T10:41:26;95671.75;;;11.59;100.00
19023;BME280;35226;48.606;8.858;2023-04-24T10:44:14;95677.72;;;11.66;100.00
19023;BME280;35226;48.606;8.858;2023-04-24T10:46:43;95674.53;;;12.10;100.00
19023;BME280;35226;48.606;8.858;2023-04-24T10:49:09;95677.59;;;12.12;100.00
19023;BME280;35226;48.606;8.858;2023-04-24T10:51:51;95676.94;;;12.17;100.00
19023;BME280;35226;48.606;8.858;2023-04-24T10:54:29;95675.75;;;12.42;100.00
19023;BME280;35226;48.606;8.858;2023-04-24T10:59:43;95672.78;;;12.21;100.00
19023;BME280;35226;48.606;8.858;2023-04-24T11:02:09;95675.09;;;12.47;100.00
19023;BME280;35226;48.606;8.858;2023-04-24T11:04:35;95683.97;;;12.27;100.00
19023;BME280;35226;48.606;8.858;2023-04-24T11:07:04;95679.16;;;12.37;100.00
19023;BME280;35226;48.606;8.858;2023-04-24T11:09:31;95682.84;;;12.10;99.99
19023;BME280;35226;48.606;8.858;2023-04-24T11:17:36;95712.91;;;11.66;100.00
19023;BME280;35226;48.606;8.858;2023-04-24T11:20:07;95710.38;;;11.07;100.00
19023;BME280;35226;48.606;8.858;2023-04-24T11:22:34;95714.53;;;10.94;100.00
19023;BME280;35226;48.606;8.858;2023-04-24T11:25:02;95713.22;;;11.68;100.00
19023;BME280;35226;48.606;8.858;2023-04-24T11:27:31;95712.94;;;11.84;100.00
19023;BME280;35226;48.606;8.858;2023-04-24T11:30:02;95711.34;;;11.92;100.00
19023;BME280;35226;48.606;8.858;2023-04-24T11:35:21;95707.28;;;12.11;100.00
19023;BME280;35226;48.606;8.858;2023-04-24T11:37:49;95715.41;;;12.15;100.00
19023;BME280;35226;48.606;8.858;2023-04-24T11:40:17;95713.91;;;12.05;100.00
19023;BME280;35226;48.606;8.858;2023-04-24T11:42:48;95715.66;;;12.26;100.00
19023;BME280;35226;48.606;8.858;2023-04-24T11:45:21;95728.84;;;12.40;100.00
19023;BME280;35226;48.606;8.858;2023-04-24T11:47:47;95716.69;;;12.05;100.00
19023;BME280;35226;48.606;8.858;2023-04-24T11:50:15;95725.75;;;12.05;100.00
19023;BME280;35226;48.606;8.858;2023-04-24T11:52:42;95718.44;;;12.26;100.00
19023;BME280;35226;48.606;8.858;2023-04-24T11:57:42;95722.63;;;12.21;100.00
19023;BME280;35226;48.606;8.858;2023-04-24T12:00:22;95722.53;;;12.07;100.00
19023;BME280;35226;48.606;8.858;2023-04-24T12:02:48;95721.75;;;12.06;100.00
19023;BME280;35226;48.606;8.858;2023-04-24T12:05:27;95732.78;;;11.64;100.00
19023;BME280;35226;48.606;8.858;2023-04-24T12:07:53;95746.03;;;11.33;100.00
19023;BME280;35226;48.606;8.858;2023-04-24T12:10:22;95738.66;;;11.21;100.00
19023;BME280;35226;48.606;8.858;2023-04-24T12:12:49;95737.41;;;11.31;100.00
19023;BME280;35226;48.606;8.858;2023-04-24T12:15:17;95737.72;;;11.24;100.00
19023;BME280;35226;48.606;8.858;2023-04-24T12:17:45;95742.78;;;10.98;100.00
19023;BME280;35226;48.606;8.858;2023-04-24T12:20:12;95738.66;;;11.11;100.00
19023;BME280;35226;48.606;8.858;2023-04-24T12:22:48;95739.28;;;11.06;100.00
19023;BME280;35226;48.606;8.858;2023-04-24T12:25:16;95747.38;;;10.92;100.00
19023;BME280;35226;48.606;8.858;2023-04-24T12:27:44;95752.31;;;11.06;100.00
19023;BME280;35226;48.606;8.858;2023-04-24T12:30:14;95739.72;;;11.14;100.00
19023;BME280;35226;48.606;8.858;2023-04-24T12:32:45;95738.91;;;11.68;100.00
19023;BME280;35226;48.606;8.858;2023-04-24T12:35:11;95736.91;;;11.69;100.00
19023;BME280;35226;48.606;8.858;2023-04-24T12:37:37;95737.06;;;11.56;100.00
19023;BME280;35226;48.606;8.858;2023-04-24T12:40:11;95732.94;;;11.52;100.00
19023;BME280;35226;48.606;8.858;2023-04-24T12:42:45;95735.53;;;11.64;100.00
19023;BME280;35226;48.606;8.858;2023-04-24T12:45:11;95728.63;;;11.50;100.00
19023;BME280;35226;48.606;8.858;2023-04-24T12:47:38;95728.50;;;11.27;100.00
19023;BME280;35226;48.606;8.858;2023-04-24T12:50:04;95730.97;;;11.34;100.00
19023;BME280;35226;48.606;8.858;2023-04-24T12:52:30;95726.06;;;11.10;100.00
19023;BME280;35226;48.606;8.858;2023-04-24T12:54:58;95734.97;;;11.24;100.00
19023;BME280;35226;48.606;8.858;2023-04-24T12:57:25;95734.03;;;11.36;100.00
19023;BME280;35226;48.606;8.858;2023-04-24T12:59:54;95737.28;;;11.25;100.00
19023;BME280;35226;48.606;8.858;2023-04-24T13:02:21;95744.03;;;11.15;100.00
19023;BME280;35226;48.606;8.858;2023-04-24T13:04:48;95738.03;;;11.17;100.00
19023;BME280;35226;48.606;8.858;2023-04-24T13:07:14;95750.44;;;10.75;100.00
19023;BME280;35226;48.606;8.858;2023-04-24T13:09:41;95746.31;;;10.98;100.00
19023;BME280;35226;48.606;8.858;2023-04-24T13:12:07;95741.88;;;11.10;100.00
19023;BME280;35226;48.606;8.858;2023-04-24T13:14:33;95742.94;;;10.85;100.00